Terminal Aerodrome Forecast
Issued by NWS

Home | Current Version | Previous Version | Text Only | Print | Product List | Glossary On
Versions: 1 2 3 4 5 6 7 8 9 10 11 12 13 14 15 16 17
327
FTUS43 KPAH 210803 AAA
TAFCGI
TAF AMD
KCGI 210803Z 2108/2206 01012KT P6SM -SHRA VCTS BKN045CB
      TEMPO 2108/2111 4SM -TSRA BR BKN035CB
     FM211500 02008KT P6SM SCT020 OVC080
     FM211800 04008KT P6SM VCSH BKN025
      TEMPO 2120/2124 4SM -TSRA BR BKN010CB
     FM220000 03008KT 4SM -SHRA BR BKN009=

USA.gov is the U.S. government's official web portal to all federal, state and local government web resources and services.